createdAt,value
2018-07-03T00:02:22.892Z,6.43
2018-07-03T00:04:51.719Z,5.47
2018-07-03T00:07:20.735Z,5.27
2018-07-03T00:09:49.571Z,5.50
2018-07-03T00:12:18.403Z,5.10
2018-07-03T00:14:47.227Z,5.30
2018-07-03T00:17:17.223Z,5.33
2018-07-03T00:19:50.311Z,5.37
2018-07-03T00:22:20.252Z,6.13
2018-07-03T00:24:49.071Z,4.73
2018-07-03T00:27:18.409Z,5.20
2018-07-03T00:29:47.236Z,5.53
2018-07-03T00:32:16.063Z,4.50
2018-07-03T00:34:44.907Z,6.27
2018-07-03T00:37:13.732Z,4.93
2018-07-03T00:39:42.572Z,4.30
2018-07-03T00:42:11.408Z,6.27
2018-07-03T00:44:40.249Z,5.83
2018-07-03T00:47:09.039Z,5.00
2018-07-03T00:49:37.891Z,5.53
2018-07-03T00:52:06.778Z,4.80
2018-07-03T00:54:35.674Z,5.33
2018-07-03T00:57:04.603Z,5.47
2018-07-03T00:59:33.582Z,6.07
2018-07-03T01:02:02.432Z,5.30
2018-07-03T01:04:31.157Z,6.00
2018-07-03T01:06:59.983Z,5.47
2018-07-03T01:09:28.819Z,5.30
2018-07-03T01:11:57.568Z,4.97
2018-07-03T01:14:26.381Z,4.83
2018-07-03T01:16:55.243Z,4.93
2018-07-03T01:19:23.472Z,5.23
2018-07-03T01:21:52.323Z,4.87
2018-07-03T01:24:21.082Z,4.80
2018-07-03T01:26:49.904Z,5.37
2018-07-03T01:29:18.133Z,5.93
2018-07-03T01:31:46.939Z,5.00
2018-07-03T01:34:15.803Z,8.33
2018-07-03T01:36:44.611Z,5.40
2018-07-03T01:39:13.427Z,5.10
2018-07-03T01:41:42.166Z,5.10
2018-07-03T01:44:11.015Z,4.77
2018-07-03T01:46:39.808Z,5.90
2018-07-03T01:49:08.511Z,5.23
2018-07-03T01:51:37.335Z,6.17
2018-07-03T01:54:06.286Z,5.00
2018-07-03T01:56:35.148Z,6.10
2018-07-03T01:59:04.023Z,4.70
2018-07-03T02:01:32.837Z,5.47
2018-07-03T02:04:01.715Z,5.83
2018-07-03T02:06:30.522Z,5.10
2018-07-03T02:08:59.334Z,5.03
2018-07-03T02:11:28.496Z,5.50
2018-07-03T02:13:57.319Z,5.00
2018-07-03T02:16:26.174Z,5.10
2018-07-03T02:18:54.889Z,5.17
2018-07-03T02:21:23.723Z,5.03
2018-07-03T02:23:52.530Z,4.40
2018-07-03T02:26:21.353Z,4.80
2018-07-03T02:28:50.147Z,5.03
2018-07-03T02:31:18.984Z,5.30
2018-07-03T02:33:47.849Z,5.40
2018-07-03T02:36:16.747Z,4.93
2018-07-03T02:38:45.576Z,5.53
2018-07-03T02:41:14.295Z,4.97
2018-07-03T02:43:43.170Z,5.50
2018-07-03T02:46:12.020Z,5.27
2018-07-03T02:48:40.833Z,5.33
2018-07-03T02:51:09.561Z,5.80
2018-07-03T02:53:38.427Z,5.30
2018-07-03T02:56:07.324Z,5.27
2018-07-03T02:58:36.167Z,6.30
2018-07-03T03:01:05.045Z,6.20
2018-07-03T03:03:34.148Z,5.47
2018-07-03T03:06:03.028Z,5.00
2018-07-03T03:08:31.873Z,4.93
2018-07-03T03:11:00.715Z,5.30
2018-07-03T03:13:29.573Z,4.27
2018-07-03T03:15:58.427Z,4.90
2018-07-03T03:18:27.147Z,5.40
2018-07-03T03:20:55.972Z,7.40
2018-07-03T03:23:24.956Z,7.47
2018-07-03T03:25:53.952Z,5.90
2018-07-03T03:28:22.834Z,5.87
2018-07-03T03:30:51.736Z,5.17
2018-07-03T03:33:20.590Z,4.77
2018-07-03T03:35:49.399Z,5.70
2018-07-03T03:38:18.220Z,7.83
2018-07-03T03:40:47.064Z,5.73
2018-07-03T03:43:15.882Z,5.00
2018-07-03T03:45:44.700Z,4.90
2018-07-03T03:48:13.559Z,5.20
2018-07-03T03:50:42.363Z,5.27
2018-07-03T03:53:11.260Z,4.80
2018-07-03T03:55:40.118Z,4.90
2018-07-03T03:58:09.008Z,4.80
2018-07-03T04:00:37.856Z,4.40
2018-07-03T04:03:06.727Z,5.47
2018-07-03T04:05:35.553Z,5.50
2018-07-03T04:08:04.480Z,5.57
2018-07-03T04:10:33.410Z,7.73
2018-07-03T04:13:02.327Z,5.20
2018-07-03T04:15:31.467Z,4.57
2018-07-03T04:18:00.242Z,5.13
2018-07-03T04:20:29.074Z,4.90
2018-07-03T04:22:57.935Z,4.83
2018-07-03T04:25:26.807Z,5.53
2018-07-03T04:27:55.631Z,4.50
2018-07-03T04:30:24.443Z,4.50
2018-07-03T04:32:53.334Z,7.37
2018-07-03T04:35:22.206Z,4.70
2018-07-03T04:37:50.942Z,5.17
2018-07-03T04:40:19.792Z,4.73
2018-07-03T04:42:48.638Z,5.77
2018-07-03T04:45:17.879Z,4.93
2018-07-03T04:47:46.922Z,5.07
2018-07-03T04:50:15.971Z,12.90
2018-07-03T04:52:45.115Z,4.80
2018-07-03T04:55:13.951Z,5.53
2018-07-03T04:57:42.971Z,5.33
2018-07-03T05:00:11.818Z,4.67
2018-07-03T05:02:40.715Z,4.83
2018-07-03T05:05:09.972Z,4.87
2018-07-03T05:07:38.843Z,5.00
2018-07-03T05:10:07.820Z,4.80
2018-07-03T05:12:36.636Z,5.00
2018-07-03T05:15:05.533Z,4.97
2018-07-03T05:17:34.470Z,5.60
2018-07-03T05:20:03.394Z,5.20
2018-07-03T05:22:33.034Z,4.90
2018-07-03T05:25:02.489Z,9.13
2018-07-03T05:27:32.236Z,5.00
2018-07-03T05:30:01.348Z,5.00
2018-07-03T05:32:30.402Z,5.17
2018-07-03T05:35:00.062Z,4.87
2018-07-03T05:37:29.551Z,4.83
2018-07-03T05:39:59.223Z,4.60
2018-07-03T05:42:28.268Z,5.47
2018-07-03T05:44:57.112Z,4.60
2018-07-03T05:47:25.961Z,4.40
2018-07-03T05:49:54.770Z,4.20
2018-07-03T05:52:23.663Z,5.03
2018-07-03T05:54:52.542Z,4.83
2018-07-03T05:57:21.352Z,4.60
2018-07-03T05:59:50.085Z,4.50
2018-07-03T06:02:18.942Z,4.87
2018-07-03T06:04:47.772Z,5.00
2018-07-03T06:07:16.651Z,5.37
2018-07-03T06:09:45.507Z,4.57
2018-07-03T06:12:14.367Z,4.60
2018-07-03T06:14:43.200Z,3.83
2018-07-03T06:17:12.289Z,4.83
2018-07-03T06:19:41.131Z,4.23
2018-07-03T06:22:09.979Z,3.83
2018-07-03T06:24:38.824Z,5.20
2018-07-03T06:27:07.715Z,5.00
2018-07-03T06:29:36.926Z,4.50
2018-07-03T06:32:06.485Z,5.20
2018-07-03T06:34:35.685Z,4.17
2018-07-03T06:37:04.639Z,5.33
2018-07-03T06:39:33.463Z,4.13
2018-07-03T06:42:02.932Z,4.17
2018-07-03T06:44:31.979Z,5.97
2018-07-03T06:47:00.935Z,4.20
2018-07-03T06:49:29.750Z,3.30
2018-07-03T06:51:58.607Z,4.10
2018-07-03T06:54:27.450Z,4.50
2018-07-03T06:56:56.181Z,5.10
2018-07-03T06:59:25.027Z,4.37
2018-07-03T07:01:53.868Z,3.87
2018-07-03T07:04:22.706Z,5.87
2018-07-03T07:06:51.548Z,4.70
2018-07-03T07:09:20.503Z,5.53
2018-07-03T07:11:49.312Z,3.57
2018-07-03T07:14:18.201Z,4.07
2018-07-03T07:16:47.116Z,3.40
2018-07-03T07:19:15.955Z,3.70
2018-07-03T07:21:44.666Z,4.30
2018-07-03T07:24:13.891Z,3.43
2018-07-03T07:26:42.987Z,3.50
2018-07-03T07:29:11.886Z,5.00
2018-07-03T07:31:47.448Z,3.73
2018-07-03T07:34:16.315Z,10.30
2018-07-03T07:36:45.467Z,8.30
2018-07-03T07:39:14.566Z,4.73
2018-07-03T07:41:43.608Z,2.40
2018-07-03T07:44:12.519Z,3.40
2018-07-03T07:46:41.386Z,2.80
2018-07-03T07:49:11.372Z,2.97
2018-07-03T07:51:40.684Z,4.00
2018-07-03T07:54:09.795Z,3.23
2018-07-03T07:56:39.534Z,4.00
2018-07-03T07:59:08.783Z,3.03
2018-07-03T08:01:37.908Z,5.93
2018-07-03T08:04:06.811Z,3.03
2018-07-03T08:06:35.839Z,2.73
2018-07-03T08:09:07.565Z,4.00
2018-07-03T08:11:36.451Z,3.13
2018-07-03T08:14:05.936Z,4.80
2018-07-03T08:16:34.840Z,3.97
2018-07-03T08:19:03.845Z,3.20
2018-07-03T08:21:32.704Z,2.90
2018-07-03T08:24:01.620Z,4.83
2018-07-03T08:26:30.467Z,4.10
2018-07-03T08:28:59.409Z,2.90
2018-07-03T08:31:28.271Z,3.53
2018-07-03T08:33:57.127Z,5.37
2018-07-03T08:36:26.075Z,4.70
2018-07-03T08:38:55.239Z,3.30
2018-07-03T08:41:24.111Z,3.40
2018-07-03T08:43:53.531Z,3.73
2018-07-03T08:46:22.447Z,2.70
2018-07-03T08:48:52.060Z,5.23
2018-07-03T08:51:20.950Z,3.23
2018-07-03T08:53:50.660Z,4.70
2018-07-03T08:56:19.739Z,3.63
2018-07-03T08:58:48.732Z,5.23
2018-07-03T09:01:17.584Z,4.43
2018-07-03T09:03:46.485Z,4.27
2018-07-03T09:06:15.393Z,3.90
2018-07-03T09:08:44.246Z,3.93
2018-07-03T09:11:13.111Z,5.27
2018-07-03T09:13:42.702Z,3.50
2018-07-03T09:16:11.626Z,3.47
2018-07-03T09:18:40.476Z,3.87
2018-07-03T09:21:09.383Z,5.13
2018-07-03T09:23:38.339Z,5.00
2018-07-03T09:26:07.439Z,4.33
2018-07-03T09:28:36.363Z,5.70
2018-07-03T09:31:05.310Z,3.90
2018-07-03T09:33:34.217Z,4.10
2018-07-03T09:36:03.567Z,5.33
2018-07-03T09:38:32.472Z,3.50
2018-07-03T09:41:01.325Z,4.53
2018-07-03T09:43:30.211Z,7.63
2018-07-03T09:45:59.073Z,3.80
2018-07-03T09:48:27.964Z,7.23
2018-07-03T09:50:56.815Z,6.37
2018-07-03T09:53:25.572Z,14.77
2018-07-03T09:55:54.460Z,9.07
2018-07-03T09:58:23.326Z,24.07
2018-07-03T10:00:54.163Z,12.23
2018-07-03T10:03:24.359Z,4.50
2018-07-03T10:05:55.126Z,9.97
2018-07-03T10:08:24.007Z,9.40
2018-07-03T10:10:52.812Z,19.30
2018-07-03T10:13:21.653Z,15.03
2018-07-03T10:15:51.231Z,9.83
2018-07-03T10:18:20.147Z,21.13
2018-07-03T10:20:48.886Z,11.23
2018-07-03T10:23:17.727Z,3.90
2018-07-03T10:25:47.235Z,8.90
2018-07-03T10:28:16.083Z,9.63
2018-07-03T10:30:44.950Z,5.27
2018-07-03T10:33:13.828Z,6.17
2018-07-03T10:35:42.952Z,12.30
2018-07-03T10:38:12.000Z,4.70
2018-07-03T10:40:40.891Z,9.67
2018-07-03T10:43:09.764Z,7.83
2018-07-03T10:45:38.698Z,7.93
2018-07-03T10:48:08.099Z,6.70
2018-07-03T10:50:37.216Z,6.93
2018-07-03T10:53:06.091Z,6.47
2018-07-03T10:55:34.951Z,5.30
2018-07-03T10:58:03.901Z,6.70
2018-07-03T11:00:32.764Z,4.50
2018-07-03T11:03:01.667Z,10.27
2018-07-03T11:05:30.507Z,8.93
2018-07-03T11:07:59.787Z,6.27
2018-07-03T11:10:28.753Z,3.43
2018-07-03T11:12:57.627Z,4.23
2018-07-03T11:15:26.791Z,4.60
2018-07-03T11:17:56.126Z,5.20
2018-07-03T11:20:25.097Z,4.77
2018-07-03T11:22:54.387Z,8.50
2018-07-03T11:25:23.407Z,5.60
2018-07-03T11:27:52.189Z,5.80
2018-07-03T11:30:21.644Z,4.20
2018-07-03T11:32:50.891Z,5.67
2018-07-03T11:35:19.856Z,5.53
2018-07-03T11:37:48.806Z,4.20
2018-07-03T11:40:17.943Z,4.30
2018-07-03T11:42:46.860Z,4.77
2018-07-03T11:45:15.731Z,3.30
2018-07-03T11:47:44.732Z,4.97
2018-07-03T11:50:13.569Z,3.50
2018-07-03T11:52:42.447Z,5.30
2018-07-03T11:55:11.328Z,4.03
2018-07-03T11:57:40.207Z,5.40
2018-07-03T12:00:09.267Z,4.20
2018-07-03T12:02:38.011Z,6.20
2018-07-03T12:05:06.836Z,5.03
2018-07-03T12:07:35.691Z,4.47
2018-07-03T12:10:04.663Z,5.80
2018-07-03T12:12:33.511Z,4.97
2018-07-03T12:15:02.376Z,5.33
2018-07-03T12:17:31.231Z,4.50
2018-07-03T12:20:00.055Z,6.43
2018-07-03T12:22:28.960Z,7.07
2018-07-03T12:24:57.847Z,5.47
2018-07-03T12:27:26.762Z,7.10
2018-07-03T12:29:55.672Z,6.20
2018-07-03T12:32:24.595Z,5.10
2018-07-03T12:34:53.630Z,9.27
2018-07-03T12:37:22.362Z,4.80
2018-07-03T12:39:51.255Z,4.80
2018-07-03T12:42:20.180Z,5.13
2018-07-03T12:44:49.024Z,6.67
2018-07-03T12:47:17.883Z,5.27
2018-07-03T12:49:46.834Z,6.70
2018-07-03T12:52:15.739Z,9.20
2018-07-03T12:54:44.615Z,8.37
2018-07-03T12:57:13.580Z,16.50
2018-07-03T12:59:42.467Z,13.43
2018-07-03T13:02:11.321Z,8.00
2018-07-03T13:04:40.272Z,6.80
2018-07-03T13:07:09.163Z,11.70
2018-07-03T13:09:37.999Z,7.30
2018-07-03T13:12:06.856Z,17.23
2018-07-03T13:14:35.811Z,13.40
2018-07-03T13:17:04.810Z,14.73
2018-07-03T13:19:33.699Z,16.47
2018-07-03T13:22:02.577Z,14.83
2018-07-03T13:24:31.470Z,10.60
2018-07-03T13:27:00.325Z,9.67
2018-07-03T13:29:29.115Z,10.10
2018-07-03T13:31:58.020Z,11.43
2018-07-03T13:34:26.752Z,11.13
2018-07-03T13:36:55.631Z,19.77
2018-07-03T13:39:24.502Z,9.57
2018-07-03T13:41:53.254Z,13.80
2018-07-03T13:44:25.042Z,9.47
2018-07-03T13:46:54.347Z,12.50
2018-07-03T13:49:23.240Z,9.53
2018-07-03T13:51:52.107Z,14.13
2018-07-03T13:54:21.065Z,9.63
2018-07-03T13:56:51.110Z,11.43
2018-07-03T13:59:22.069Z,10.40
2018-07-03T14:01:51.551Z,24.90
2018-07-03T14:04:20.609Z,13.23
2018-07-03T14:06:49.716Z,7.47
2018-07-03T14:09:19.228Z,8.07
2018-07-03T14:11:48.310Z,8.80
2018-07-03T14:14:17.716Z,10.30
2018-07-03T14:16:46.775Z,11.83
2018-07-03T14:19:15.619Z,13.77
2018-07-03T14:21:44.525Z,11.57
2018-07-03T14:24:13.480Z,10.77
2018-07-03T14:26:42.364Z,8.37
2018-07-03T14:29:11.219Z,9.13
2018-07-03T14:31:40.064Z,10.20
2018-07-03T14:34:09.016Z,9.37
2018-07-03T14:36:38.475Z,10.07
2018-07-03T14:39:11.735Z,10.63
2018-07-03T14:41:40.903Z,10.83
2018-07-03T14:44:10.035Z,13.43
2018-07-03T14:46:39.759Z,10.17
2018-07-03T14:49:08.727Z,11.00
2018-07-03T14:51:37.642Z,9.83
2018-07-03T14:54:06.579Z,10.20
2018-07-03T14:56:35.503Z,10.27
2018-07-03T14:59:07.673Z,10.63
2018-07-03T15:01:37.812Z,9.00
2018-07-03T15:04:06.903Z,9.53
2018-07-03T15:06:35.766Z,9.20
2018-07-03T15:09:08.880Z,9.53
2018-07-03T15:11:37.901Z,9.20
2018-07-03T15:14:06.715Z,9.47
2018-07-03T15:16:35.592Z,7.73
2018-07-03T15:19:10.378Z,11.33
2018-07-03T15:21:39.282Z,11.17
2018-07-03T15:24:09.228Z,8.80
2018-07-03T15:26:39.820Z,10.53
2018-07-03T15:29:09.746Z,9.77
2018-07-03T15:31:38.916Z,16.83
2018-07-03T15:34:08.979Z,9.00
2018-07-03T15:36:37.924Z,12.57
2018-07-03T15:39:10.821Z,11.93
2018-07-03T15:41:40.015Z,9.20
2018-07-03T15:44:26.131Z,12.63
2018-07-03T15:46:57.354Z,8.70
2018-07-03T15:49:26.334Z,7.80
2018-07-03T15:51:55.332Z,9.20
2018-07-03T15:54:24.268Z,7.57
2018-07-03T15:56:53.256Z,9.47
2018-07-03T15:59:22.200Z,20.10
2018-07-03T16:01:51.181Z,7.90
2018-07-03T16:05:35.680Z,8.40
2018-07-03T16:08:28.741Z,8.57
2018-07-03T16:10:59.199Z,10.80
2018-07-03T16:13:29.831Z,7.87
2018-07-03T16:15:58.742Z,8.60
2018-07-03T16:18:28.060Z,8.00
2018-07-03T16:20:56.902Z,7.67
2018-07-03T16:23:25.792Z,7.10
2018-07-03T16:25:55.409Z,8.00
2018-07-03T16:28:24.311Z,7.87
2018-07-03T16:30:53.176Z,7.43
2018-07-03T16:33:22.061Z,10.20
2018-07-03T16:35:50.987Z,8.97
2018-07-03T16:38:19.824Z,9.83
2018-07-03T16:40:48.696Z,9.70
2018-07-03T16:43:17.448Z,7.50
2018-07-03T16:45:46.323Z,6.90
2018-07-03T16:48:15.387Z,10.87
2018-07-03T16:50:44.262Z,8.47
2018-07-03T16:53:13.395Z,6.93
2018-07-03T16:55:42.292Z,7.97
2018-07-03T16:58:11.209Z,8.10
2018-07-03T17:00:39.970Z,8.93
2018-07-03T17:03:08.951Z,10.43
2018-07-03T17:05:37.779Z,8.07
2018-07-03T17:08:06.618Z,8.90
2018-07-03T17:10:35.423Z,6.60
2018-07-03T17:13:04.723Z,8.33
2018-07-03T17:15:34.159Z,6.93
2018-07-03T17:18:02.995Z,7.67
2018-07-03T17:20:31.875Z,7.00
2018-07-03T17:23:00.736Z,7.20
2018-07-03T17:25:29.476Z,6.73
2018-07-03T17:27:58.297Z,6.83
2018-07-03T17:30:27.271Z,9.70
2018-07-03T17:32:56.164Z,8.67
2018-07-03T17:35:24.996Z,7.57
2018-07-03T17:37:54.475Z,8.00
2018-07-03T17:40:40.481Z,8.63
2018-07-03T17:44:41.109Z,7.90
2018-07-03T17:47:09.987Z,6.90
2018-07-03T17:49:38.859Z,8.57
2018-07-03T17:52:07.764Z,9.90
2018-07-03T17:54:36.750Z,6.87
2018-07-03T17:57:05.695Z,7.03
2018-07-03T17:59:34.561Z,8.50
2018-07-03T18:02:03.501Z,8.00
2018-07-03T18:04:32.457Z,8.03
2018-07-03T18:07:01.432Z,7.30
2018-07-03T18:09:30.369Z,7.33
2018-07-03T18:11:59.217Z,7.80
2018-07-03T18:14:28.167Z,8.00
2018-07-03T18:16:57.007Z,9.97
2018-07-03T18:19:31.403Z,7.50
2018-07-03T18:22:00.232Z,7.30
2018-07-03T18:24:29.142Z,7.50
2018-07-03T18:26:59.062Z,7.43
2018-07-03T18:29:28.280Z,7.70
2018-07-03T18:31:57.324Z,9.37
2018-07-03T18:34:26.305Z,10.00
2018-07-03T18:36:55.266Z,8.60
2018-07-03T18:39:24.100Z,8.30
2018-07-03T18:41:52.821Z,7.67
2018-07-03T18:44:21.906Z,7.47
2018-07-03T18:46:52.541Z,8.67
2018-07-03T18:49:21.784Z,6.90
2018-07-03T18:51:51.096Z,7.77
2018-07-03T18:54:21.745Z,8.30
2018-07-03T18:56:51.886Z,7.43
2018-07-03T18:59:21.104Z,9.77
2018-07-03T19:02:05.154Z,7.40
2018-07-03T19:04:49.975Z,7.80
2018-07-03T19:07:23.672Z,8.03
2018-07-03T19:09:53.647Z,8.70
2018-07-03T19:12:23.746Z,7.70
2018-07-03T19:14:53.048Z,10.50
2018-07-03T19:17:22.041Z,8.90
2018-07-03T19:19:50.892Z,8.47
2018-07-03T19:22:19.767Z,7.33
2018-07-03T19:24:48.529Z,8.77
2018-07-03T19:27:17.784Z,8.20
2018-07-03T19:29:46.637Z,7.93
2018-07-03T19:32:15.521Z,8.27
2018-07-03T19:34:44.380Z,11.13
2018-07-03T19:37:13.251Z,9.30
2018-07-03T19:39:43.155Z,8.10
2018-07-03T19:42:12.043Z,7.47
2018-07-03T19:44:40.915Z,8.60
2018-07-03T19:47:09.647Z,9.27
2018-07-03T19:49:38.569Z,8.67
2018-07-03T19:52:07.616Z,8.33
2018-07-03T19:54:36.507Z,8.70
2018-07-03T19:57:05.562Z,8.10
2018-07-03T19:59:34.440Z,7.63
2018-07-03T20:02:03.978Z,8.10
2018-07-03T20:04:32.834Z,8.70
2018-07-03T20:07:01.799Z,9.13
2018-07-03T20:09:31.490Z,7.90
2018-07-03T20:12:00.466Z,9.00
2018-07-03T20:14:29.312Z,9.37
2018-07-03T20:16:59.648Z,8.67
2018-07-03T20:19:28.471Z,11.00
2018-07-03T20:21:57.486Z,9.00
2018-07-03T20:24:27.772Z,9.40
2018-07-03T20:26:56.975Z,8.40
2018-07-03T20:29:25.848Z,9.47
2018-07-03T20:31:54.671Z,8.50
2018-07-03T20:34:24.591Z,8.87
2018-07-03T20:36:53.459Z,8.33
2018-07-03T20:39:22.230Z,8.50
2018-07-03T20:41:51.072Z,9.23
2018-07-03T20:44:20.412Z,10.17
2018-07-03T20:46:49.246Z,9.33
2018-07-03T20:49:18.099Z,9.57
2018-07-03T20:51:46.838Z,9.43
2018-07-03T20:54:15.752Z,8.50
2018-07-03T20:56:44.576Z,9.63
2018-07-03T20:59:13.322Z,9.20
2018-07-03T21:01:42.256Z,9.40
2018-07-03T21:04:11.390Z,9.63
2018-07-03T21:06:40.279Z,10.07
2018-07-03T21:09:09.811Z,11.63
2018-07-03T21:11:38.682Z,10.67
2018-07-03T21:14:07.656Z,9.13
2018-07-03T21:16:36.496Z,9.80
2018-07-03T21:19:05.353Z,11.10
2018-07-03T21:21:34.180Z,10.47
2018-07-03T21:24:03.107Z,8.90
2018-07-03T21:26:31.836Z,9.60
2018-07-03T21:29:00.671Z,8.93
2018-07-03T21:31:29.519Z,9.20
2018-07-03T21:33:58.365Z,10.00
2018-07-03T21:36:27.209Z,10.67
2018-07-03T21:38:56.132Z,10.73
2018-07-03T21:41:24.888Z,10.33
2018-07-03T21:43:53.747Z,9.73
2018-07-03T21:46:22.555Z,11.33
2018-07-03T21:48:51.370Z,9.50
2018-07-03T21:51:20.214Z,10.30
2018-07-03T21:53:49.057Z,10.17
2018-07-03T21:56:17.900Z,9.93
2018-07-03T21:58:46.763Z,8.80
2018-07-03T22:01:15.495Z,11.30
2018-07-03T22:03:44.327Z,9.70
2018-07-03T22:06:13.042Z,10.27
2018-07-03T22:08:41.856Z,9.37
2018-07-03T22:11:10.782Z,9.43
2018-07-03T22:13:39.592Z,10.90
2018-07-03T22:16:08.412Z,10.57
2018-07-03T22:18:37.251Z,9.67
2018-07-03T22:21:05.966Z,10.33
2018-07-03T22:23:34.799Z,10.80
2018-07-03T22:26:03.689Z,10.60
2018-07-03T22:28:32.514Z,9.90
2018-07-03T22:31:01.422Z,10.20
2018-07-03T22:33:30.251Z,10.33
2018-07-03T22:35:59.099Z,9.30
2018-07-03T22:38:27.951Z,9.80
2018-07-03T22:40:56.766Z,9.90
2018-07-03T22:43:25.520Z,11.20
2018-07-03T22:45:54.321Z,10.93
2018-07-03T22:48:23.030Z,11.00
2018-07-03T22:50:52.065Z,10.40
2018-07-03T22:53:20.916Z,10.03
2018-07-03T22:55:49.759Z,10.40
2018-07-03T22:58:18.615Z,11.73
2018-07-03T23:00:47.455Z,10.83
2018-07-03T23:03:16.316Z,11.20
2018-07-03T23:05:45.183Z,10.73
2018-07-03T23:08:14.007Z,10.57
2018-07-03T23:10:42.836Z,10.50
2018-07-03T23:13:11.563Z,10.60
2018-07-03T23:15:40.475Z,10.60
2018-07-03T23:18:09.321Z,9.03
2018-07-03T23:20:38.151Z,9.60
2018-07-03T23:23:07.044Z,11.00
2018-07-03T23:25:35.824Z,11.40
2018-07-03T23:28:04.927Z,12.23
2018-07-03T23:30:33.783Z,11.13
2018-07-03T23:33:02.643Z,10.20
2018-07-03T23:35:31.533Z,10.17
2018-07-03T23:38:00.246Z,10.73
2018-07-03T23:40:29.113Z,10.73
2018-07-03T23:42:57.962Z,10.53
2018-07-03T23:46:05.107Z,9.57
2018-07-03T23:48:51.218Z,10.13
2018-07-03T23:51:37.178Z,10.57
2018-07-03T23:54:23.075Z,11.43
2018-07-03T23:57:08.931Z,10.53
2018-07-03T23:59:54.863Z,10.77
